SHT9G EGPH-EGLL
Flight info
| Callsign | SHT9G |
|---|---|
| Flight time | 1h 13m |
| Altitude | 35000 |
| Route | GOSAM P600 FENIK L612 NAVSO DCT AKOMU DCT VAMEB DCT NUGRA |
| Aircraft | A319/M-SDE3FGHIRWY/LB1 |
Departure
| Time | 2026-04-21 14:51 |
|---|---|
| Airport | Edinburgh Airport (EGPH) |
Arrival
| Time | 2026-04-21 16:04 |
|---|---|
| Airport | London Heathrow Airport (EGLL) |
| Time | Latitude | Longitude | Altitude | Speed | Heading |
|---|---|---|---|---|---|
| 2026-04-21 14:30 | 55.94879 | -3.36547 | 142 ft | 0 kts | 149° |
| 2026-04-21 14:41 | 55.94888 | -3.36556 | 142 ft | 2 kts | 155° |
| 2026-04-21 14:41 | 55.94902 | -3.36564 | 142 ft | 2 kts | 168° |
| 2026-04-21 14:42 | 55.94917 | -3.36567 | 142 ft | 2 kts | 181° |
| 2026-04-21 14:42 | 55.94932 | -3.36565 | 142 ft | 2 kts | 193° |
| 2026-04-21 14:42 | 55.94946 | -3.36557 | 142 ft | 2 kts | 205° |
| 2026-04-21 14:42 | 55.94959 | -3.36544 | 143 ft | 2 kts | 217° |
| 2026-04-21 14:43 | 55.94970 | -3.36526 | 142 ft | 2 kts | 229° |
| 2026-04-21 14:43 | 55.94976 | -3.36511 | 142 ft | 0 kts | 237° |
| 2026-04-21 14:43 | 55.94980 | -3.36502 | 142 ft | 0 kts | 240° |
| 2026-04-21 14:45 | 55.94974 | -3.36519 | 142 ft | 2 kts | 240° |
| 2026-04-21 14:45 | 55.94961 | -3.36557 | 142 ft | 4 kts | 236° |
| 2026-04-21 14:45 | 55.94954 | -3.36576 | 142 ft | 1 kts | 238° |
| 2026-04-21 14:46 | 55.94947 | -3.36596 | 142 ft | 0 kts | 238° |
| 2026-04-21 14:46 | 55.94947 | -3.36597 | 142 ft | 0 kts | 238° |
| 2026-04-21 14:47 | 55.94939 | -3.36618 | 142 ft | 3 kts | 238° |
| 2026-04-21 14:47 | 55.94919 | -3.36678 | 142 ft | 7 kts | 239° |
| 2026-04-21 14:47 | 55.94900 | -3.36783 | 142 ft | 10 kts | 286° |
| 2026-04-21 14:47 | 55.94921 | -3.36909 | 142 ft | 12 kts | 244° |
| 2026-04-21 14:48 | 55.94870 | -3.37057 | 142 ft | 15 kts | 238° |
| 2026-04-21 14:48 | 55.94811 | -3.37231 | 142 ft | 17 kts | 240° |
| 2026-04-21 14:48 | 55.94749 | -3.37417 | 142 ft | 16 kts | 239° |
| 2026-04-21 14:48 | 55.94686 | -3.37600 | 142 ft | 18 kts | 239° |
| 2026-04-21 14:49 | 55.94616 | -3.37804 | 142 ft | 17 kts | 239° |
| 2026-04-21 14:49 | 55.94625 | -3.37977 | 142 ft | 17 kts | 333° |
| 2026-04-21 14:49 | 55.94711 | -3.38074 | 142 ft | 6 kts | 5° |
| 2026-04-21 14:49 | 55.94722 | -3.38055 | 142 ft | 0 kts | 59° |
| 2026-04-21 14:50 | 55.94723 | -3.38052 | 142 ft | 1 kts | 59° |
| 2026-04-21 14:50 | 55.94736 | -3.38016 | 142 ft | 11 kts | 57° |
| 2026-04-21 14:51 | 55.94933 | -3.37436 | 143 ft | 94 kts | 59° |
| 2026-04-21 14:51 | 55.95391 | -3.36087 | 254 ft | 148 kts | 59° |
| 2026-04-21 14:51 | 55.95892 | -3.34627 | 1216 ft | 133 kts | 57° |
| 2026-04-21 14:51 | 55.96506 | -3.33442 | 1999 ft | 136 kts | 47° |
| 2026-04-21 14:52 | 55.97229 | -3.32268 | 2621 ft | 151 kts | 45° |
| 2026-04-21 14:52 | 55.98051 | -3.30951 | 3247 ft | 168 kts | 45° |
| 2026-04-21 14:52 | 55.98963 | -3.29492 | 3840 ft | 189 kts | 45° |
| 2026-04-21 14:52 | 56.00130 | -3.28184 | 4474 ft | 215 kts | 19° |
| 2026-04-21 14:53 | 56.01696 | -3.28248 | 5149 ft | 246 kts | 345° |
| 2026-04-21 14:53 | 56.03149 | -3.30129 | 5726 ft | 276 kts | 310° |
| 2026-04-21 14:53 | 56.03906 | -3.33308 | 5959 ft | 287 kts | 278° |
| 2026-04-21 14:53 | 56.03669 | -3.36789 | 5970 ft | 286 kts | 247° |
| 2026-04-21 14:54 | 56.02850 | -3.40032 | 5972 ft | 286 kts | 243° |
| 2026-04-21 14:54 | 56.02066 | -3.43319 | 6107 ft | 293 kts | 248° |
| 2026-04-21 14:54 | 56.01410 | -3.46775 | 6975 ft | 299 kts | 252° |
| 2026-04-21 14:54 | 56.00853 | -3.50290 | 8175 ft | 297 kts | 253° |
| 2026-04-21 14:55 | 56.00331 | -3.53855 | 9221 ft | 300 kts | 254° |
| 2026-04-21 14:55 | 55.99820 | -3.57448 | 10202 ft | 304 kts | 254° |
| 2026-04-21 14:55 | 55.99301 | -3.61102 | 11117 ft | 311 kts | 255° |
| 2026-04-21 14:55 | 55.98759 | -3.64900 | 11697 ft | 328 kts | 254° |
| 2026-04-21 14:56 | 55.98189 | -3.68884 | 12335 ft | 342 kts | 253° |
| 2026-04-21 14:56 | 55.97584 | -3.73095 | 13207 ft | 347 kts | 253° |
| 2026-04-21 14:56 | 55.96896 | -3.77217 | 14049 ft | 350 kts | 243° |
| 2026-04-21 14:56 | 55.95639 | -3.80366 | 14769 ft | 347 kts | 218° |
| 2026-04-21 14:57 | 55.93734 | -3.82323 | 15521 ft | 340 kts | 192° |
| 2026-04-21 14:57 | 55.91471 | -3.82705 | 16295 ft | 335 kts | 172° |
| 2026-04-21 14:57 | 55.89127 | -3.82366 | 17053 ft | 340 kts | 170° |
| 2026-04-21 14:57 | 55.86757 | -3.82015 | 17781 ft | 346 kts | 171° |
| 2026-04-21 14:58 | 55.84374 | -3.81771 | 18477 ft | 352 kts | 173° |
| 2026-04-21 14:58 | 55.81910 | -3.81616 | 19172 ft | 358 kts | 174° |
| 2026-04-21 14:58 | 55.79399 | -3.81523 | 19888 ft | 362 kts | 175° |
| 2026-04-21 14:58 | 55.76911 | -3.81471 | 20590 ft | 365 kts | 175° |
| 2026-04-21 14:59 | 55.74358 | -3.81438 | 21296 ft | 369 kts | 175° |
| 2026-04-21 14:59 | 55.71790 | -3.81418 | 21983 ft | 372 kts | 176° |
| 2026-04-21 14:59 | 55.69202 | -3.81404 | 22658 ft | 375 kts | 176° |
| 2026-04-21 14:59 | 55.66588 | -3.81394 | 23321 ft | 378 kts | 176° |
| 2026-04-21 15:00 | 55.63955 | -3.81388 | 23966 ft | 381 kts | 176° |
| 2026-04-21 15:00 | 55.61325 | -3.81382 | 24583 ft | 384 kts | 176° |
| 2026-04-21 15:00 | 55.58635 | -3.81376 | 25172 ft | 387 kts | 177° |
| 2026-04-21 15:00 | 55.55967 | -3.81372 | 25731 ft | 390 kts | 177° |
| 2026-04-21 15:01 | 55.53240 | -3.81367 | 26279 ft | 392 kts | 177° |
| 2026-04-21 15:01 | 55.50531 | -3.81363 | 26824 ft | 394 kts | 177° |
| 2026-04-21 15:01 | 55.47772 | -3.81361 | 27313 ft | 398 kts | 178° |
| 2026-04-21 15:01 | 55.45015 | -3.81341 | 27708 ft | 403 kts | 179° |
| 2026-04-21 15:02 | 55.42183 | -3.81335 | 28084 ft | 409 kts | 180° |
| 2026-04-21 15:02 | 55.39321 | -3.81341 | 28504 ft | 413 kts | 180° |
| 2026-04-21 15:02 | 55.36480 | -3.81340 | 28964 ft | 415 kts | 180° |
| 2026-04-21 15:02 | 55.33581 | -3.81337 | 29460 ft | 416 kts | 181° |
| 2026-04-21 15:03 | 55.30696 | -3.81335 | 29927 ft | 417 kts | 181° |
| 2026-04-21 15:03 | 55.27768 | -3.81271 | 30338 ft | 420 kts | 179° |
| 2026-04-21 15:03 | 55.24871 | -3.80790 | 30707 ft | 425 kts | 174° |
| 2026-04-21 15:03 | 55.21947 | -3.79795 | 31054 ft | 430 kts | 168° |
| 2026-04-21 15:04 | 55.19076 | -3.78283 | 31476 ft | 432 kts | 162° |
| 2026-04-21 15:04 | 55.16337 | -3.76303 | 31929 ft | 432 kts | 156° |
| 2026-04-21 15:04 | 55.13627 | -3.74013 | 32356 ft | 432 kts | 155° |
| 2026-04-21 15:04 | 55.10957 | -3.71707 | 32760 ft | 432 kts | 155° |
| 2026-04-21 15:05 | 55.08254 | -3.69369 | 33142 ft | 432 kts | 155° |
| 2026-04-21 15:05 | 55.02871 | -3.64740 | 33764 ft | 433 kts | 154° |
| 2026-04-21 15:05 | 55.00188 | -3.62445 | 34033 ft | 435 kts | 154° |
| 2026-04-21 15:06 | 54.97450 | -3.60107 | 34281 ft | 437 kts | 154° |
| 2026-04-21 15:06 | 54.94734 | -3.57794 | 34573 ft | 439 kts | 154° |
| 2026-04-21 15:06 | 54.91972 | -3.55445 | 34850 ft | 441 kts | 154° |
| 2026-04-21 15:06 | 54.89244 | -3.53131 | 35141 ft | 442 kts | 154° |
| 2026-04-21 15:07 | 54.86464 | -3.50776 | 35402 ft | 443 kts | 154° |
| 2026-04-21 15:07 | 54.83702 | -3.48439 | 35442 ft | 445 kts | 154° |
| 2026-04-21 15:07 | 54.78141 | -3.43746 | 35462 ft | 445 kts | 154° |
| 2026-04-21 15:08 | 54.72575 | -3.39063 | 35434 ft | 446 kts | 154° |
| 2026-04-21 15:08 | 54.67018 | -3.34401 | 35428 ft | 446 kts | 155° |
| 2026-04-21 15:09 | 54.61431 | -3.29727 | 35418 ft | 446 kts | 155° |
| 2026-04-21 15:09 | 54.55872 | -3.25094 | 35397 ft | 446 kts | 155° |
| 2026-04-21 15:10 | 54.50664 | -3.20768 | 35391 ft | 447 kts | 155° |
| 2026-04-21 15:10 | 54.45082 | -3.16140 | 35387 ft | 447 kts | 155° |
| 2026-04-21 15:11 | 54.39473 | -3.11506 | 35387 ft | 447 kts | 155° |
| 2026-04-21 15:11 | 54.33903 | -3.06915 | 35390 ft | 448 kts | 155° |
| 2026-04-21 15:12 | 54.28271 | -3.02289 | 35394 ft | 448 kts | 155° |
| 2026-04-21 15:12 | 54.22705 | -2.97731 | 35400 ft | 448 kts | 155° |
| 2026-04-21 15:13 | 54.17085 | -2.93170 | 35400 ft | 448 kts | 157° |
| 2026-04-21 15:13 | 54.11355 | -2.88970 | 35398 ft | 448 kts | 158° |
| 2026-04-21 15:14 | 54.05616 | -2.84786 | 35412 ft | 448 kts | 158° |
| 2026-04-21 15:14 | 53.99881 | -2.80775 | 35402 ft | 447 kts | 161° |
| 2026-04-21 15:15 | 53.93971 | -2.77562 | 35404 ft | 446 kts | 164° |
| 2026-04-21 15:15 | 53.88056 | -2.74438 | 35420 ft | 447 kts | 164° |
| 2026-04-21 15:16 | 53.82141 | -2.71319 | 35401 ft | 449 kts | 164° |
| 2026-04-21 15:16 | 53.76176 | -2.68182 | 35397 ft | 449 kts | 164° |
| 2026-04-21 15:17 | 53.70200 | -2.65045 | 35399 ft | 450 kts | 164° |
| 2026-04-21 15:17 | 53.64211 | -2.61914 | 35394 ft | 450 kts | 165° |
| 2026-04-21 15:18 | 53.58255 | -2.58808 | 35403 ft | 450 kts | 165° |
| 2026-04-21 15:18 | 53.52269 | -2.55696 | 35389 ft | 451 kts | 165° |
| 2026-04-21 15:19 | 53.46269 | -2.52584 | 35380 ft | 452 kts | 165° |
| 2026-04-21 15:19 | 53.40282 | -2.49490 | 35385 ft | 452 kts | 165° |
| 2026-04-21 15:20 | 53.34283 | -2.46398 | 35373 ft | 453 kts | 165° |
| 2026-04-21 15:20 | 53.28281 | -2.43310 | 35385 ft | 453 kts | 165° |
| 2026-04-21 15:21 | 53.22266 | -2.40228 | 35373 ft | 453 kts | 165° |
| 2026-04-21 15:21 | 53.16271 | -2.37166 | 35363 ft | 453 kts | 165° |
| 2026-04-21 15:22 | 53.10247 | -2.34095 | 35368 ft | 454 kts | 166° |
| 2026-04-21 15:22 | 53.04293 | -2.30607 | 35341 ft | 456 kts | 160° |
| 2026-04-21 15:23 | 52.98615 | -2.25892 | 35317 ft | 460 kts | 152° |
| 2026-04-21 15:23 | 52.95896 | -2.23109 | 34775 ft | 466 kts | 149° |
| 2026-04-21 15:23 | 52.93156 | -2.20210 | 34092 ft | 470 kts | 150° |
| 2026-04-21 15:24 | 52.90525 | -2.17426 | 33459 ft | 472 kts | 150° |
| 2026-04-21 15:24 | 52.87637 | -2.14379 | 32665 ft | 476 kts | 150° |
| 2026-04-21 15:24 | 52.84853 | -2.11463 | 31869 ft | 480 kts | 150° |
| 2026-04-21 15:24 | 52.82037 | -2.08520 | 31058 ft | 485 kts | 151° |
| 2026-04-21 15:25 | 52.79713 | -2.06098 | 30443 ft | 486 kts | 151° |
| 2026-04-21 15:25 | 52.76470 | -2.02734 | 29722 ft | 483 kts | 150° |
| 2026-04-21 15:25 | 52.73620 | -1.99787 | 29082 ft | 480 kts | 150° |
| 2026-04-21 15:25 | 52.70834 | -1.96902 | 28435 ft | 478 kts | 150° |
| 2026-04-21 15:26 | 52.68027 | -1.94001 | 27860 ft | 472 kts | 149° |
| 2026-04-21 15:26 | 52.65256 | -1.91143 | 27400 ft | 464 kts | 149° |
| 2026-04-21 15:26 | 52.62552 | -1.88349 | 26926 ft | 456 kts | 149° |
| 2026-04-21 15:26 | 52.59909 | -1.85627 | 26483 ft | 449 kts | 149° |
| 2026-04-21 15:27 | 52.57287 | -1.82932 | 26048 ft | 441 kts | 148° |
| 2026-04-21 15:27 | 52.54720 | -1.80293 | 25598 ft | 434 kts | 148° |
| 2026-04-21 15:27 | 52.52197 | -1.77703 | 25134 ft | 430 kts | 148° |
| 2026-04-21 15:27 | 52.49690 | -1.75136 | 24658 ft | 426 kts | 148° |
| 2026-04-21 15:28 | 52.47195 | -1.72587 | 24187 ft | 422 kts | 147° |
| 2026-04-21 15:28 | 52.44723 | -1.70067 | 23779 ft | 419 kts | 147° |
| 2026-04-21 15:28 | 52.42248 | -1.67539 | 23383 ft | 416 kts | 147° |
| 2026-04-21 15:28 | 52.39820 | -1.65066 | 23009 ft | 413 kts | 147° |
| 2026-04-21 15:29 | 52.37412 | -1.62612 | 22629 ft | 406 kts | 147° |
| 2026-04-21 15:29 | 52.35018 | -1.60176 | 22271 ft | 401 kts | 147° |
| 2026-04-21 15:29 | 52.32693 | -1.57814 | 21870 ft | 398 kts | 147° |
| 2026-04-21 15:29 | 52.30360 | -1.55444 | 21413 ft | 395 kts | 147° |
| 2026-04-21 15:30 | 52.28046 | -1.53107 | 21065 ft | 389 kts | 147° |
| 2026-04-21 15:30 | 52.25758 | -1.50802 | 20646 ft | 384 kts | 146° |
| 2026-04-21 15:30 | 52.23508 | -1.48523 | 20196 ft | 380 kts | 146° |
| 2026-04-21 15:30 | 52.21356 | -1.46112 | 19745 ft | 375 kts | 141° |
| 2026-04-21 15:31 | 52.19341 | -1.43469 | 19302 ft | 370 kts | 137° |
| 2026-04-21 15:31 | 52.17384 | -1.40739 | 18846 ft | 366 kts | 137° |
| 2026-04-21 15:31 | 52.15494 | -1.38086 | 18397 ft | 362 kts | 136° |
| 2026-04-21 15:31 | 52.13598 | -1.35427 | 17937 ft | 358 kts | 137° |
| 2026-04-21 15:32 | 52.11738 | -1.32828 | 17488 ft | 354 kts | 137° |
| 2026-04-21 15:32 | 52.09873 | -1.30228 | 17027 ft | 350 kts | 137° |
| 2026-04-21 15:32 | 52.08033 | -1.27667 | 16556 ft | 347 kts | 137° |
| 2026-04-21 15:32 | 52.06211 | -1.25136 | 16086 ft | 343 kts | 137° |
| 2026-04-21 15:33 | 52.04416 | -1.22644 | 15596 ft | 340 kts | 137° |
| 2026-04-21 15:33 | 52.02632 | -1.20169 | 15153 ft | 337 kts | 137° |
| 2026-04-21 15:33 | 52.00850 | -1.17700 | 14707 ft | 335 kts | 137° |
| 2026-04-21 15:33 | 51.99085 | -1.15263 | 14228 ft | 332 kts | 137° |
| 2026-04-21 15:34 | 51.97354 | -1.12873 | 13737 ft | 329 kts | 137° |
| 2026-04-21 15:34 | 51.95616 | -1.10475 | 13271 ft | 326 kts | 137° |
| 2026-04-21 15:34 | 51.93919 | -1.08136 | 12819 ft | 322 kts | 137° |
| 2026-04-21 15:34 | 51.92205 | -1.05774 | 12359 ft | 319 kts | 137° |
| 2026-04-21 15:35 | 51.90544 | -1.03488 | 11908 ft | 316 kts | 137° |
| 2026-04-21 15:35 | 51.88863 | -1.01177 | 11443 ft | 312 kts | 137° |
| 2026-04-21 15:35 | 51.87216 | -0.98915 | 10996 ft | 309 kts | 137° |
| 2026-04-21 15:35 | 51.85636 | -0.96589 | 10526 ft | 304 kts | 128° |
| 2026-04-21 15:36 | 51.84494 | -0.93828 | 10074 ft | 298 kts | 115° |
| 2026-04-21 15:36 | 51.83577 | -0.90859 | 9619 ft | 295 kts | 114° |
| 2026-04-21 15:36 | 51.82683 | -0.87883 | 9157 ft | 292 kts | 114° |
| 2026-04-21 15:36 | 51.81797 | -0.84938 | 8702 ft | 289 kts | 114° |
| 2026-04-21 15:37 | 51.80926 | -0.82063 | 8256 ft | 281 kts | 114° |
| 2026-04-21 15:37 | 51.80090 | -0.79326 | 7821 ft | 264 kts | 113° |
| 2026-04-21 15:37 | 51.79303 | -0.76757 | 7409 ft | 247 kts | 113° |
| 2026-04-21 15:37 | 51.78576 | -0.74391 | 7266 ft | 223 kts | 113° |
| 2026-04-21 15:38 | 51.77889 | -0.72147 | 7281 ft | 221 kts | 112° |
| 2026-04-21 15:38 | 51.77213 | -0.69936 | 7282 ft | 221 kts | 112° |
| 2026-04-21 15:38 | 51.76527 | -0.67700 | 7283 ft | 221 kts | 112° |
| 2026-04-21 15:38 | 51.75851 | -0.65499 | 7282 ft | 221 kts | 112° |
| 2026-04-21 15:39 | 51.75162 | -0.63266 | 7259 ft | 221 kts | 112° |
| 2026-04-21 15:39 | 51.74475 | -0.61074 | 6951 ft | 223 kts | 116° |
| 2026-04-21 15:39 | 51.73336 | -0.59159 | 6629 ft | 254 kts | 144° |
| 2026-04-21 15:39 | 51.71604 | -0.58327 | 6328 ft | 271 kts | 172° |
| 2026-04-21 15:40 | 51.69733 | -0.58920 | 6019 ft | 283 kts | 200° |
| 2026-04-21 15:40 | 51.68155 | -0.60859 | 5721 ft | 291 kts | 224° |
| 2026-04-21 15:40 | 51.66885 | -0.63368 | 5425 ft | 291 kts | 230° |
| 2026-04-21 15:40 | 51.65669 | -0.65976 | 5124 ft | 291 kts | 230° |
| 2026-04-21 15:41 | 51.64470 | -0.68578 | 4988 ft | 290 kts | 232° |
| 2026-04-21 15:41 | 51.63404 | -0.71349 | 4984 ft | 292 kts | 239° |
| 2026-04-21 15:41 | 51.62439 | -0.74243 | 4980 ft | 293 kts | 240° |
| 2026-04-21 15:41 | 51.61487 | -0.77178 | 4978 ft | 293 kts | 240° |
| 2026-04-21 15:42 | 51.60550 | -0.80086 | 4977 ft | 293 kts | 240° |
| 2026-04-21 15:42 | 51.59631 | -0.82949 | 4972 ft | 283 kts | 240° |
| 2026-04-21 15:42 | 51.58752 | -0.85670 | 4968 ft | 267 kts | 238° |
| 2026-04-21 15:42 | 51.57584 | -0.87857 | 4860 ft | 249 kts | 208° |
| 2026-04-21 15:43 | 51.56053 | -0.88773 | 4664 ft | 231 kts | 179° |
| 2026-04-21 15:43 | 51.54483 | -0.88882 | 4465 ft | 223 kts | 172° |
| 2026-04-21 15:43 | 51.52948 | -0.88842 | 4263 ft | 219 kts | 171° |
| 2026-04-21 15:43 | 51.51488 | -0.88453 | 4044 ft | 203 kts | 145° |
| 2026-04-21 15:44 | 51.50509 | -0.87032 | 3851 ft | 188 kts | 118° |
| 2026-04-21 15:44 | 51.49863 | -0.85246 | 3650 ft | 183 kts | 112° |
| 2026-04-21 15:44 | 51.49289 | -0.83444 | 3447 ft | 179 kts | 111° |
| 2026-04-21 15:44 | 51.48735 | -0.81667 | 3243 ft | 176 kts | 111° |
| 2026-04-21 15:45 | 51.48238 | -0.79880 | 3040 ft | 171 kts | 105° |
| 2026-04-21 15:45 | 51.47896 | -0.78116 | 2973 ft | 161 kts | 97° |
| 2026-04-21 15:45 | 51.47728 | -0.76368 | 2967 ft | 159 kts | 92° |
| 2026-04-21 15:45 | 51.47682 | -0.74591 | 2968 ft | 159 kts | 87° |
| 2026-04-21 15:46 | 51.47694 | -0.72832 | 2959 ft | 160 kts | 86° |
| 2026-04-21 15:46 | 51.47709 | -0.71046 | 2785 ft | 160 kts | 86° |
| 2026-04-21 15:46 | 51.47717 | -0.69271 | 2575 ft | 158 kts | 87° |
| 2026-04-21 15:46 | 51.47721 | -0.67519 | 2369 ft | 156 kts | 87° |
| 2026-04-21 15:47 | 51.47722 | -0.65802 | 2167 ft | 153 kts | 87° |
| 2026-04-21 15:47 | 51.47722 | -0.64133 | 2009 ft | 143 kts | 87° |
| 2026-04-21 15:47 | 51.47722 | -0.62580 | 1828 ft | 136 kts | 86° |
| 2026-04-21 15:47 | 51.47724 | -0.61079 | 1631 ft | 136 kts | 86° |
| 2026-04-21 15:48 | 51.47727 | -0.59552 | 1435 ft | 137 kts | 86° |
| 2026-04-21 15:48 | 51.47729 | -0.58040 | 1280 ft | 140 kts | 86° |
| 2026-04-21 15:48 | 51.47733 | -0.56359 | 1093 ft | 153 kts | 87° |
| 2026-04-21 15:48 | 51.47737 | -0.54633 | 872 ft | 156 kts | 88° |
| 2026-04-21 15:49 | 51.47740 | -0.52893 | 659 ft | 158 kts | 88° |
| 2026-04-21 15:49 | 51.47744 | -0.51180 | 444 ft | 147 kts | 88° |
| 2026-04-21 15:49 | 51.47746 | -0.49623 | 239 ft | 130 kts | 88° |
| 2026-04-21 15:49 | 51.47749 | -0.48213 | 124 ft | 133 kts | 87° |
| 2026-04-21 15:50 | 51.47752 | -0.46688 | 233 ft | 143 kts | 88° |
| 2026-04-21 15:50 | 51.47757 | -0.45031 | 788 ft | 158 kts | 87° |
| 2026-04-21 15:50 | 51.47789 | -0.43153 | 1420 ft | 182 kts | 85° |
| 2026-04-21 15:50 | 51.47854 | -0.41076 | 2157 ft | 189 kts | 86° |
| 2026-04-21 15:51 | 51.47833 | -0.39073 | 2684 ft | 176 kts | 89° |
| 2026-04-21 15:51 | 51.47783 | -0.37102 | 2950 ft | 177 kts | 89° |
| 2026-04-21 15:51 | 51.47930 | -0.35197 | 2961 ft | 175 kts | 64° |
| 2026-04-21 15:51 | 51.48758 | -0.33750 | 2979 ft | 180 kts | 42° |
| 2026-04-21 15:52 | 51.49905 | -0.32927 | 2971 ft | 190 kts | 13° |
| 2026-04-21 15:52 | 51.51256 | -0.32935 | 2980 ft | 195 kts | 4° |
| 2026-04-21 15:52 | 51.52156 | -0.33064 | 2980 ft | 195 kts | 2° |
| 2026-04-21 15:52 | 51.53949 | -0.33378 | 2979 ft | 195 kts | 1° |
| 2026-04-21 15:53 | 51.55293 | -0.33704 | 2986 ft | 200 kts | 349° |
| 2026-04-21 15:53 | 51.56421 | -0.35144 | 3179 ft | 221 kts | 303° |
| 2026-04-21 15:53 | 51.56866 | -0.37533 | 3440 ft | 228 kts | 282° |
| 2026-04-21 15:53 | 51.57060 | -0.40083 | 3691 ft | 229 kts | 279° |
| 2026-04-21 15:54 | 51.57252 | -0.42631 | 3940 ft | 230 kts | 281° |
| 2026-04-21 15:54 | 51.57492 | -0.45135 | 4188 ft | 230 kts | 283° |
| 2026-04-21 15:54 | 51.57782 | -0.47681 | 4440 ft | 231 kts | 284° |
| 2026-04-21 15:54 | 51.58100 | -0.50231 | 4693 ft | 232 kts | 285° |
| 2026-04-21 15:55 | 51.58424 | -0.52752 | 4922 ft | 233 kts | 285° |
| 2026-04-21 15:55 | 51.58756 | -0.55305 | 4976 ft | 233 kts | 285° |
| 2026-04-21 15:55 | 51.59091 | -0.57873 | 4977 ft | 233 kts | 285° |
| 2026-04-21 15:55 | 51.59421 | -0.60421 | 4978 ft | 233 kts | 285° |
| 2026-04-21 15:56 | 51.59749 | -0.62951 | 4981 ft | 233 kts | 283° |
| 2026-04-21 15:56 | 51.59920 | -0.65540 | 4981 ft | 235 kts | 271° |
| 2026-04-21 15:56 | 51.59831 | -0.68165 | 4984 ft | 235 kts | 265° |
| 2026-04-21 15:56 | 51.59654 | -0.70814 | 4980 ft | 235 kts | 264° |
| 2026-04-21 15:57 | 51.59470 | -0.73397 | 4975 ft | 234 kts | 264° |
| 2026-04-21 15:57 | 51.59275 | -0.75982 | 4780 ft | 233 kts | 258° |
| 2026-04-21 15:57 | 51.58597 | -0.78298 | 4473 ft | 230 kts | 222° |
| 2026-04-21 15:57 | 51.57312 | -0.79605 | 4207 ft | 216 kts | 186° |
| 2026-04-21 15:58 | 51.55851 | -0.79839 | 3954 ft | 207 kts | 171° |
| 2026-04-21 15:58 | 51.54424 | -0.79724 | 3703 ft | 205 kts | 168° |
| 2026-04-21 15:58 | 51.53001 | -0.79564 | 3450 ft | 205 kts | 168° |
| 2026-04-21 15:58 | 51.51562 | -0.79424 | 3194 ft | 206 kts | 168° |
| 2026-04-21 15:59 | 51.50182 | -0.79089 | 2991 ft | 195 kts | 150° |
| 2026-04-21 15:59 | 51.49040 | -0.77998 | 2977 ft | 187 kts | 129° |
| 2026-04-21 15:59 | 51.48245 | -0.76415 | 2971 ft | 180 kts | 111° |
| 2026-04-21 15:59 | 51.47832 | -0.74522 | 2970 ft | 176 kts | 97° |
| 2026-04-21 16:00 | 51.47688 | -0.72562 | 2940 ft | 174 kts | 89° |
| 2026-04-21 16:00 | 51.47683 | -0.70630 | 2775 ft | 172 kts | 86° |
| 2026-04-21 16:00 | 51.47706 | -0.68704 | 2599 ft | 173 kts | 86° |
| 2026-04-21 16:00 | 51.47720 | -0.66787 | 2340 ft | 171 kts | 86° |
| 2026-04-21 16:01 | 51.47726 | -0.64884 | 2094 ft | 172 kts | 87° |
| 2026-04-21 16:01 | 51.47727 | -0.62982 | 1852 ft | 166 kts | 87° |
| 2026-04-21 16:01 | 51.47725 | -0.61246 | 1633 ft | 146 kts | 86° |
| 2026-04-21 16:01 | 51.47726 | -0.59707 | 1438 ft | 129 kts | 86° |
| 2026-04-21 16:02 | 51.47727 | -0.58371 | 1255 ft | 113 kts | 86° |
| 2026-04-21 16:02 | 51.47730 | -0.57131 | 1116 ft | 110 kts | 86° |
| 2026-04-21 16:02 | 51.47733 | -0.55902 | 979 ft | 110 kts | 86° |
| 2026-04-21 16:02 | 51.47736 | -0.54670 | 847 ft | 110 kts | 86° |
| 2026-04-21 16:03 | 51.47739 | -0.53442 | 706 ft | 109 kts | 87° |
| 2026-04-21 16:03 | 51.47741 | -0.52221 | 558 ft | 109 kts | 87° |
| 2026-04-21 16:03 | 51.47745 | -0.51004 | 410 ft | 109 kts | 88° |
| 2026-04-21 16:03 | 51.47744 | -0.49793 | 269 ft | 109 kts | 88° |
| 2026-04-21 16:04 | 51.47744 | -0.48589 | 141 ft | 109 kts | 86° |
| 2026-04-21 16:04 | 51.47755 | -0.47419 | 84 ft | 93 kts | 88° |
| 2026-04-21 16:04 | 51.47758 | -0.46591 | 83 ft | 63 kts | 89° |
| 2026-04-21 16:04 | 51.47693 | -0.46139 | 83 ft | 25 kts | 141° |
| 2026-04-21 16:05 | 51.47616 | -0.46086 | 83 ft | 11 kts | 210° |
| 2026-04-21 16:05 | 51.47593 | -0.46211 | 83 ft | 13 kts | 270° |
| 2026-04-21 16:05 | 51.47593 | -0.46364 | 83 ft | 14 kts | 269° |
| 2026-04-21 16:05 | 51.47591 | -0.46533 | 83 ft | 15 kts | 268° |
| 2026-04-21 16:06 | 51.47591 | -0.46719 | 83 ft | 17 kts | 269° |
| 2026-04-21 16:06 | 51.47582 | -0.46914 | 83 ft | 17 kts | 270° |
| 2026-04-21 16:06 | 51.47582 | -0.47117 | 83 ft | 18 kts | 269° |
| 2026-04-21 16:06 | 51.47580 | -0.47331 | 83 ft | 19 kts | 269° |
| 2026-04-21 16:07 | 51.47579 | -0.47555 | 83 ft | 20 kts | 271° |
| 2026-04-21 16:07 | 51.47579 | -0.47785 | 83 ft | 21 kts | 268° |
| 2026-04-21 16:07 | 51.47579 | -0.48025 | 83 ft | 21 kts | 270° |
| 2026-04-21 16:07 | 51.47578 | -0.48267 | 83 ft | 22 kts | 269° |
| 2026-04-21 16:08 | 51.47575 | -0.48772 | 83 ft | 23 kts | 268° |
| 2026-04-21 16:08 | 51.47556 | -0.48949 | 83 ft | 14 kts | 215° |
| 2026-04-21 16:08 | 51.47483 | -0.48892 | 83 ft | 6 kts | 158° |
| 2026-04-21 16:09 | 51.47442 | -0.48891 | 83 ft | 7 kts | 179° |
| 2026-04-21 16:09 | 51.47404 | -0.48891 | 83 ft | 0 kts | 180° |